Aviation Digital Data Service (ADDS)

Output produced by METARs form (1038 UTC 19 February 2019)
found at http://www.aviationweather.gov/metar/data/
 
Forecast for: ETSL (LECHFELD (GER-AF, DE)
Text: TAF ETSL 190825Z 1909/1918 22008KT 9999 NSW FEW300
Forecast period: 0900 to 1200 UTC 19 February 2019
Forecast type: FROM: standard forecast or significant change
Winds: from the SW (220 degrees) at 9 MPH (8 knots; 4.1 m/s)
Visibility: 6 or more miles 10+ km)
Ceiling: at least 12,000 feet AGL
Clouds: few clouds at 30000 feet AGL
Weather: NSW  (no significant weather)
Text: BECMG 1912/1914 23008KT 9999 NSW BKN040
Forecast period: 1200 to 1800 UTC 19 February 2019
Forecast type: BECOMING: Conditions expected to become as follows by 1400 UTC 19 February 2019
Winds: from the SW (230 degrees) at 9 MPH (8 knots; 4.1 m/s)
Visibility: 6 or more miles 10+ km)
Ceiling: 4000 feet AGL
Clouds: broken clouds at 4000 feet AGL
Weather: NSW  (no significant weather)
Text: TEMPO 1915/1918 22010KT 5000 -RA SCT010 BKN025 BY ETGL
Forecast period: 1500 to 1800 UTC 19 February 2019
Forecast type: TEMPORARY: The following changes expected for less than half the time period
Winds: from the SW (220 degrees) at 12 MPH (10 knots; 5.1 m/s)
Visibility: 3 miles (5 km)
Ceiling: 2500 feet AGL
Clouds: scattered clouds at 1000 feet AGL
broken clouds at 2500 feet AGL
Weather: -RA  (light rain)